createdAt,value
2019-03-04T00:02:17.105Z,10.07
2019-03-04T00:06:22.445Z,11.67
2019-03-04T00:10:27.714Z,12.93
2019-03-04T00:14:33.109Z,13.67
2019-03-04T00:18:38.361Z,9.10
2019-03-04T00:22:43.718Z,13.37
2019-03-04T00:26:48.994Z,12.93
2019-03-04T00:30:54.390Z,10.93
2019-03-04T00:34:59.659Z,12.10
2019-03-04T00:39:08.034Z,11.77
2019-03-04T00:43:14.901Z,17.77
2019-03-04T00:47:25.703Z,11.37
2019-03-04T00:51:30.982Z,11.43
2019-03-04T00:55:36.241Z,19.60
2019-03-04T00:59:41.530Z,12.63
2019-03-04T01:03:46.836Z,14.73
2019-03-04T01:07:52.133Z,11.87
2019-03-04T01:11:57.406Z,12.17
2019-03-04T01:16:02.673Z,15.43
2019-03-04T01:20:15.840Z,11.60
2019-03-04T01:24:21.098Z,11.80
2019-03-04T01:28:26.365Z,17.00
2019-03-04T01:32:31.630Z,9.37
2019-03-04T01:36:36.910Z,15.23
2019-03-04T01:40:42.278Z,11.97
2019-03-04T01:44:47.707Z,9.73
2019-03-04T01:48:52.922Z,10.63
2019-03-04T01:52:58.202Z,12.30
2019-03-04T01:57:03.488Z,12.30
2019-03-04T02:01:08.756Z,12.60
2019-03-04T02:05:14.227Z,12.00
2019-03-04T02:09:19.626Z,13.90
2019-03-04T02:13:24.903Z,13.93
2019-03-04T02:17:30.241Z,10.77
2019-03-04T02:21:35.606Z,11.70
2019-03-04T02:25:46.675Z,12.17
2019-03-04T02:29:51.922Z,11.07
2019-03-04T02:33:57.204Z,9.80
2019-03-04T02:38:02.473Z,12.90
2019-03-04T02:42:07.800Z,12.27
2019-03-04T02:46:13.133Z,13.60
2019-03-04T02:50:18.377Z,16.97
2019-03-04T02:54:23.690Z,10.10
2019-03-04T02:58:28.977Z,14.13
2019-03-04T03:02:34.283Z,11.00
2019-03-04T03:06:39.547Z,11.20
2019-03-04T03:10:44.665Z,14.80
2019-03-04T03:14:49.933Z,8.83
2019-03-04T03:18:55.207Z,12.57
2019-03-04T03:23:00.484Z,10.40
2019-03-04T03:27:05.761Z,9.50
2019-03-04T03:31:11.054Z,8.00
2019-03-04T03:35:16.283Z,6.57
2019-03-04T03:39:21.551Z,8.23
2019-03-04T03:43:26.887Z,8.73
2019-03-04T03:47:32.143Z,7.33
2019-03-04T03:51:37.419Z,8.70
2019-03-04T03:55:42.659Z,10.87
2019-03-04T03:59:47.932Z,5.73
2019-03-04T04:03:54.179Z,11.27
2019-03-04T04:07:59.518Z,10.50
2019-03-04T04:12:04.858Z,6.77
2019-03-04T04:16:10.095Z,5.97
2019-03-04T04:20:15.541Z,7.07
2019-03-04T04:24:20.795Z,4.87
2019-03-04T04:28:26.122Z,7.53
2019-03-04T04:32:31.388Z,6.73
2019-03-04T04:36:36.652Z,7.47
2019-03-04T04:40:41.904Z,8.67
2019-03-04T04:44:47.156Z,8.63
2019-03-04T04:48:52.441Z,7.37
2019-03-04T04:52:57.682Z,8.83
2019-03-04T04:57:02.954Z,14.07
2019-03-04T05:01:08.210Z,12.47
2019-03-04T05:05:13.711Z,4.40
2019-03-04T05:09:19.009Z,6.67
2019-03-04T05:13:24.290Z,10.40
2019-03-04T05:17:29.565Z,9.70
2019-03-04T05:21:34.810Z,2.97
2019-03-04T05:25:40.070Z,3.53
2019-03-04T05:29:46.069Z,9.20
2019-03-04T05:33:51.475Z,7.83
2019-03-04T05:37:56.718Z,9.83
2019-03-04T05:42:02.086Z,8.53
2019-03-04T05:46:07.343Z,12.67
2019-03-04T05:50:24.014Z,7.63
2019-03-04T05:54:29.281Z,3.83
2019-03-04T05:58:34.557Z,5.77
2019-03-04T06:02:39.942Z,7.10
2019-03-04T06:06:47.103Z,6.03
2019-03-04T06:10:52.378Z,5.60
2019-03-04T06:14:57.669Z,7.20
2019-03-04T06:19:02.937Z,9.67
2019-03-04T06:23:08.570Z,7.40
2019-03-04T06:27:13.821Z,6.13
2019-03-04T06:31:19.157Z,7.37
2019-03-04T06:35:25.518Z,5.40
2019-03-04T06:39:30.794Z,7.60
2019-03-04T06:43:36.155Z,9.63
2019-03-04T06:47:41.426Z,6.50
2019-03-04T06:51:46.678Z,7.20
2019-03-04T06:56:13.091Z,11.07
2019-03-04T07:00:27.027Z,4.83
2019-03-04T07:04:38.055Z,4.43
2019-03-04T07:08:46.455Z,9.87
2019-03-04T07:12:51.733Z,12.07
2019-03-04T07:16:57.040Z,8.73
2019-03-04T07:21:02.298Z,7.70
2019-03-04T07:25:09.409Z,7.20
2019-03-04T07:29:15.133Z,9.30
2019-03-04T07:33:20.563Z,7.13
2019-03-04T07:37:25.818Z,6.03
2019-03-04T07:41:31.094Z,4.93
2019-03-04T07:45:36.651Z,5.47
2019-03-04T07:49:43.558Z,6.33
2019-03-04T07:53:48.860Z,3.43
2019-03-04T07:57:54.162Z,8.73
2019-03-04T08:01:59.439Z,6.97
2019-03-04T08:06:05.079Z,6.70
2019-03-04T08:10:25.170Z,5.60
2019-03-04T08:14:30.444Z,8.27
2019-03-04T08:18:35.723Z,5.57
2019-03-04T08:22:41.038Z,9.60
2019-03-04T08:26:46.346Z,8.53
2019-03-04T08:30:51.743Z,7.60
2019-03-04T08:34:57.080Z,5.37
2019-03-04T08:39:02.444Z,5.87
2019-03-04T08:43:09.267Z,6.03
2019-03-04T08:47:14.543Z,6.83
2019-03-04T08:51:19.814Z,5.87
2019-03-04T08:55:25.178Z,8.20
2019-03-04T08:59:30.442Z,4.93
2019-03-04T09:03:35.834Z,7.30
2019-03-04T09:07:41.178Z,9.63
2019-03-04T09:11:46.503Z,5.77
2019-03-04T09:15:51.863Z,8.50
2019-03-04T09:19:57.175Z,6.93
2019-03-04T09:24:02.437Z,6.47
2019-03-04T09:28:07.774Z,4.73
2019-03-04T09:32:13.115Z,8.57
2019-03-04T09:36:18.506Z,3.30
2019-03-04T09:40:28.962Z,8.30
2019-03-04T09:44:34.302Z,3.73
2019-03-04T09:48:39.584Z,5.43
2019-03-04T09:52:44.933Z,7.60
2019-03-04T09:56:50.267Z,3.57
2019-03-04T10:01:07.669Z,7.00
2019-03-04T10:05:30.457Z,9.30
2019-03-04T10:09:38.811Z,6.43
2019-03-04T10:14:09.516Z,5.33
2019-03-04T10:18:26.841Z,8.00
2019-03-04T10:22:44.151Z,5.23
2019-03-04T10:26:55.124Z,3.53
2019-03-04T10:31:06.417Z,4.33
2019-03-04T10:35:20.488Z,4.97
2019-03-04T10:39:37.694Z,4.57
2019-03-04T10:43:46.082Z,6.07
2019-03-04T10:47:51.353Z,6.67
2019-03-04T10:51:57.601Z,2.37
2019-03-04T10:56:02.861Z,6.87
2019-03-04T11:00:16.287Z,13.30
2019-03-04T11:04:21.671Z,5.53
2019-03-04T11:08:26.944Z,7.67
2019-03-04T11:12:32.365Z,6.27
2019-03-04T11:16:37.714Z,8.43
2019-03-04T11:20:43.050Z,5.83
2019-03-04T11:24:48.453Z,2.97
2019-03-04T11:28:53.765Z,1.23
2019-03-04T11:32:59.213Z,6.57
2019-03-04T11:37:04.874Z,2.37
2019-03-04T11:41:15.757Z,5.13
2019-03-04T11:45:21.040Z,6.40
2019-03-04T11:49:26.343Z,5.00
2019-03-04T11:53:31.606Z,6.17
2019-03-04T11:57:36.877Z,5.23
2019-03-04T12:01:43.924Z,4.50
2019-03-04T12:05:49.194Z,3.83
2019-03-04T12:09:54.441Z,6.23
2019-03-04T12:14:00.686Z,5.53
2019-03-04T12:18:06.085Z,3.70
2019-03-04T12:22:11.357Z,3.80
2019-03-04T12:26:18.470Z,5.23
2019-03-04T12:30:25.929Z,6.07
2019-03-04T12:34:31.174Z,2.10
2019-03-04T12:38:36.448Z,5.83
2019-03-04T12:42:41.727Z,4.27
2019-03-04T12:46:46.989Z,5.73
2019-03-04T12:50:52.299Z,6.23
2019-03-04T12:54:57.522Z,5.90
2019-03-04T12:59:03.213Z,5.43
2019-03-04T13:03:11.622Z,7.20
2019-03-04T13:07:16.909Z,6.47
2019-03-04T13:11:22.203Z,10.10
2019-03-04T13:15:32.134Z,4.37
2019-03-04T13:19:37.425Z,7.67
2019-03-04T13:23:42.975Z,6.37
2019-03-04T13:27:48.267Z,2.73
2019-03-04T13:31:53.569Z,7.20
2019-03-04T13:35:58.910Z,9.27
2019-03-04T13:40:06.876Z,6.23
2019-03-04T13:44:12.470Z,3.50
2019-03-04T13:48:17.822Z,4.43
2019-03-04T13:52:23.082Z,4.67
2019-03-04T13:56:28.609Z,5.23
2019-03-04T14:00:38.962Z,3.77
2019-03-04T14:04:44.247Z,1.83
2019-03-04T14:08:49.606Z,10.00
2019-03-04T14:12:55.005Z,5.73
2019-03-04T14:17:00.349Z,5.40
2019-03-04T14:21:05.785Z,6.87
2019-03-04T14:25:13.065Z,3.30
2019-03-04T14:29:18.751Z,4.00
2019-03-04T14:33:24.010Z,3.83
2019-03-04T14:37:29.287Z,6.83
2019-03-04T14:41:34.551Z,12.30
2019-03-04T14:45:39.825Z,5.80
2019-03-04T14:49:45.251Z,6.13
2019-03-04T14:53:50.594Z,9.33
2019-03-04T14:57:55.898Z,4.77
2019-03-04T15:02:01.149Z,9.27
2019-03-04T15:06:07.253Z,4.60
2019-03-04T15:10:14.922Z,9.70
2019-03-04T15:14:20.270Z,7.47
2019-03-04T15:18:25.618Z,8.03
2019-03-04T15:22:34.824Z,3.50
2019-03-04T15:26:41.969Z,5.20
2019-03-04T15:30:46.777Z,5.87
2019-03-04T15:34:52.058Z,12.30
2019-03-04T15:38:57.406Z,10.50
2019-03-04T15:43:03.312Z,6.30
2019-03-04T15:47:08.638Z,6.80
2019-03-04T15:51:15.827Z,4.40
2019-03-04T15:55:21.422Z,6.83
2019-03-04T15:59:26.834Z,8.00
2019-03-04T16:03:32.134Z,7.93
2019-03-04T16:07:38.538Z,5.00
2019-03-04T16:11:43.914Z,5.60
2019-03-04T16:15:49.418Z,5.87
2019-03-04T16:19:54.848Z,10.53
2019-03-04T16:24:00.063Z,8.33
2019-03-04T16:28:08.530Z,4.53
2019-03-04T16:32:13.848Z,5.13
2019-03-04T16:36:19.385Z,7.17
2019-03-04T16:40:27.478Z,6.97
2019-03-04T16:44:33.329Z,4.80
2019-03-04T16:48:38.602Z,11.30
2019-03-04T16:52:45.891Z,5.73
2019-03-04T16:56:51.151Z,6.83
2019-03-04T17:00:56.481Z,5.77
2019-03-04T17:05:01.782Z,4.57
2019-03-04T17:09:15.666Z,4.47
2019-03-04T17:13:20.977Z,8.47
2019-03-04T17:17:26.350Z,6.93
2019-03-04T17:21:31.601Z,7.57
2019-03-04T17:25:37.138Z,5.63
2019-03-04T17:29:42.478Z,12.20
2019-03-04T17:33:47.754Z,16.50
2019-03-04T17:37:53.237Z,8.80
2019-03-04T17:41:58.589Z,9.47
2019-03-04T17:46:04.601Z,5.73
2019-03-04T17:50:13.021Z,6.80
2019-03-04T17:54:18.414Z,6.17
2019-03-04T17:58:26.682Z,3.30
2019-03-04T18:02:32.200Z,4.27
2019-03-04T18:06:37.602Z,3.90
2019-03-04T18:10:42.587Z,5.60
2019-03-04T18:14:47.573Z,4.43
2019-03-04T18:18:54.165Z,11.93
2019-03-04T18:22:59.135Z,5.47
2019-03-04T18:27:04.370Z,6.20
2019-03-04T18:31:13.570Z,4.37
2019-03-04T18:35:27.589Z,5.07
2019-03-04T18:40:08.962Z,2.90
2019-03-04T18:44:40.736Z,4.47
2019-03-04T18:48:59.452Z,12.67
2019-03-04T18:53:04.566Z,5.07
2019-03-04T18:57:09.627Z,8.07
2019-03-04T19:01:16.398Z,8.30
2019-03-04T19:05:22.258Z,9.67
2019-03-04T19:09:27.318Z,6.97
2019-03-04T19:13:33.994Z,5.23
2019-03-04T19:17:38.986Z,4.63
2019-03-04T19:21:43.974Z,6.23
2019-03-04T19:25:49.053Z,10.40
2019-03-04T19:29:54.047Z,6.93
2019-03-04T19:33:59.018Z,6.43
2019-03-04T19:38:03.998Z,7.67
2019-03-04T19:42:09.056Z,8.33
2019-03-04T19:46:14.182Z,7.93
2019-03-04T19:50:19.334Z,9.87
2019-03-04T19:54:24.329Z,8.27
2019-03-04T19:58:29.444Z,10.23
2019-03-04T20:02:35.553Z,7.60
2019-03-04T20:06:40.697Z,10.47
2019-03-04T20:10:46.040Z,11.17
2019-03-04T20:14:51.041Z,10.70
2019-03-04T20:18:56.020Z,10.37
2019-03-04T20:23:01.144Z,11.47
2019-03-04T20:27:06.380Z,9.37
2019-03-04T20:31:11.750Z,11.27
2019-03-04T20:35:17.766Z,12.87
2019-03-04T20:39:23.086Z,14.10
2019-03-04T20:43:28.146Z,9.67
2019-03-04T20:47:34.282Z,12.83
2019-03-04T20:51:39.248Z,13.87
2019-03-04T20:55:44.418Z,14.03
2019-03-04T20:59:49.386Z,13.67
2019-03-04T21:03:54.706Z,13.47
2019-03-04T21:07:59.921Z,9.87
2019-03-04T21:12:05.373Z,11.87
2019-03-04T21:16:11.706Z,13.17
2019-03-04T21:20:17.913Z,13.33
2019-03-04T21:24:23.701Z,11.07
2019-03-04T21:28:59.981Z,13.97
2019-03-04T21:33:14.843Z,11.97
2019-03-04T21:37:31.782Z,16.70
2019-03-04T21:41:40.037Z,11.10
2019-03-04T21:46:20.985Z,12.93
2019-03-04T21:50:41.670Z,13.20
2019-03-04T21:54:47.183Z,12.10
2019-03-04T21:58:54.695Z,11.33
2019-03-04T22:03:06.148Z,15.33
2019-03-04T22:07:12.150Z,10.37
2019-03-04T22:11:17.285Z,12.10
2019-03-04T22:15:22.286Z,15.07
2019-03-04T22:19:27.277Z,12.07
2019-03-04T22:23:32.348Z,15.90
2019-03-04T22:27:37.343Z,11.90
2019-03-04T22:31:43.163Z,12.03
2019-03-04T22:35:48.154Z,16.70
2019-03-04T22:39:53.164Z,11.70
2019-03-04T22:43:58.259Z,11.20
2019-03-04T22:48:03.289Z,11.40
2019-03-04T22:52:08.313Z,15.37
2019-03-04T22:56:13.454Z,13.43
2019-03-04T23:00:42.915Z,11.83
2019-03-04T23:04:49.703Z,12.37
2019-03-04T23:08:54.769Z,13.20
2019-03-04T23:13:00.027Z,11.03
2019-03-04T23:17:05.340Z,12.27
2019-03-04T23:21:10.330Z,12.97
2019-03-04T23:25:15.323Z,16.10
2019-03-04T23:29:20.318Z,13.03
2019-03-04T23:33:25.403Z,12.43
2019-03-04T23:37:30.391Z,11.67
2019-03-04T23:41:35.410Z,11.13
2019-03-04T23:45:40.473Z,10.60
2019-03-04T23:49:46.868Z,11.47
2019-03-04T23:53:51.789Z,9.33
2019-03-04T23:57:56.781Z,11.57
